sensor_id;sensor_type;location;lat;lon;timestamp;P1;durP1;ratioP1;P2;durP2;ratioP2
66669;SDS011;53568;52.164;4.472;2023-07-08T00:00:51;5.14;;;5.14;;
66669;SDS011;53568;52.164;4.472;2023-07-08T00:03:17;5.07;;;5.07;;
66669;SDS011;53568;52.164;4.472;2023-07-08T00:05:45;5.04;;;5.04;;
66669;SDS011;53568;52.164;4.472;2023-07-08T00:08:15;4.81;;;4.81;;
66669;SDS011;53568;52.164;4.472;2023-07-08T00:10:43;5.21;;;5.21;;
66669;SDS011;53568;52.164;4.472;2023-07-08T00:13:09;5.10;;;5.10;;
66669;SDS011;53568;52.164;4.472;2023-07-08T00:15:36;5.31;;;5.31;;
66669;SDS011;53568;52.164;4.472;2023-07-08T00:18:10;5.01;;;5.01;;
66669;SDS011;53568;52.164;4.472;2023-07-08T00:20:41;5.23;;;5.23;;
66669;SDS011;53568;52.164;4.472;2023-07-08T00:23:10;4.97;;;4.97;;
66669;SDS011;53568;52.164;4.472;2023-07-08T00:25:36;4.97;;;4.97;;
66669;SDS011;53568;52.164;4.472;2023-07-08T00:28:04;5.04;;;5.04;;
66669;SDS011;53568;52.164;4.472;2023-07-08T00:30:35;5.08;;;5.08;;
66669;SDS011;53568;52.164;4.472;2023-07-08T00:33:00;4.86;;;4.86;;
66669;SDS011;53568;52.164;4.472;2023-07-08T00:35:33;5.05;;;5.05;;
66669;SDS011;53568;52.164;4.472;2023-07-08T00:38:10;5.11;;;5.11;;
66669;SDS011;53568;52.164;4.472;2023-07-08T00:46:28;5.01;;;5.01;;
66669;SDS011;53568;52.164;4.472;2023-07-08T00:51:32;5.00;;;5.00;;
66669;SDS011;53568;52.164;4.472;2023-07-08T00:53:59;5.11;;;5.11;;
66669;SDS011;53568;52.164;4.472;2023-07-08T00:56:25;5.00;;;5.00;;
66669;SDS011;53568;52.164;4.472;2023-07-08T01:01:26;4.91;;;4.91;;
66669;SDS011;53568;52.164;4.472;2023-07-08T01:03:58;5.23;;;5.23;;
66669;SDS011;53568;52.164;4.472;2023-07-08T01:06:30;4.87;;;4.87;;
66669;SDS011;53568;52.164;4.472;2023-07-08T01:09:05;5.42;;;5.42;;
66669;SDS011;53568;52.164;4.472;2023-07-08T01:11:35;5.30;;;5.30;;
66669;SDS011;53568;52.164;4.472;2023-07-08T01:14:05;5.61;;;5.61;;
66669;SDS011;53568;52.164;4.472;2023-07-08T01:16:35;5.39;;;5.39;;
66669;SDS011;53568;52.164;4.472;2023-07-08T01:19:01;5.60;;;5.60;;
66669;SDS011;53568;52.164;4.472;2023-07-08T01:21:37;5.24;;;5.24;;
66669;SDS011;53568;52.164;4.472;2023-07-08T01:24:06;5.44;;;5.44;;
66669;SDS011;53568;52.164;4.472;2023-07-08T01:26:39;5.55;;;5.55;;
66669;SDS011;53568;52.164;4.472;2023-07-08T01:29:09;5.23;;;5.23;;
66669;SDS011;53568;52.164;4.472;2023-07-08T01:31:36;5.17;;;5.17;;
66669;SDS011;53568;52.164;4.472;2023-07-08T01:34:02;5.56;;;5.56;;
66669;SDS011;53568;52.164;4.472;2023-07-08T01:36:31;5.42;;;5.42;;
66669;SDS011;53568;52.164;4.472;2023-07-08T01:39:04;5.47;;;5.47;;
66669;SDS011;53568;52.164;4.472;2023-07-08T01:41:29;5.80;;;5.75;;
66669;SDS011;53568;52.164;4.472;2023-07-08T01:43:55;5.43;;;5.43;;
66669;SDS011;53568;52.164;4.472;2023-07-08T01:46:22;5.63;;;5.63;;
66669;SDS011;53568;52.164;4.472;2023-07-08T01:48:52;5.33;;;5.33;;
66669;SDS011;53568;52.164;4.472;2023-07-08T01:51:22;5.71;;;5.71;;
66669;SDS011;53568;52.164;4.472;2023-07-08T01:53:49;5.59;;;5.59;;
66669;SDS011;53568;52.164;4.472;2023-07-08T01:56:16;5.48;;;5.48;;
66669;SDS011;53568;52.164;4.472;2023-07-08T01:58:41;5.36;;;5.36;;
66669;SDS011;53568;52.164;4.472;2023-07-08T02:01:07;5.59;;;5.59;;
66669;SDS011;53568;52.164;4.472;2023-07-08T02:03:33;5.29;;;5.29;;
66669;SDS011;53568;52.164;4.472;2023-07-08T02:05:59;5.30;;;5.30;;
66669;SDS011;53568;52.164;4.472;2023-07-08T02:08:25;5.39;;;5.39;;
66669;SDS011;53568;52.164;4.472;2023-07-08T02:10:52;5.33;;;5.33;;
66669;SDS011;53568;52.164;4.472;2023-07-08T02:13:19;5.55;;;5.55;;
66669;SDS011;53568;52.164;4.472;2023-07-08T02:15:45;5.52;;;5.52;;
66669;SDS011;53568;52.164;4.472;2023-07-08T02:18:11;5.38;;;5.38;;
66669;SDS011;53568;52.164;4.472;2023-07-08T02:20:36;5.63;;;5.63;;
66669;SDS011;53568;52.164;4.472;2023-07-08T02:23:02;6.07;;;6.07;;
66669;SDS011;53568;52.164;4.472;2023-07-08T02:25:27;5.68;;;5.68;;
66669;SDS011;53568;52.164;4.472;2023-07-08T02:27:53;6.19;;;6.19;;
66669;SDS011;53568;52.164;4.472;2023-07-08T02:30:22;5.92;;;5.92;;
66669;SDS011;53568;52.164;4.472;2023-07-08T02:32:49;5.85;;;5.85;;
66669;SDS011;53568;52.164;4.472;2023-07-08T02:35:22;6.10;;;6.10;;
66669;SDS011;53568;52.164;4.472;2023-07-08T02:37:53;6.08;;;6.08;;
66669;SDS011;53568;52.164;4.472;2023-07-08T02:40:20;6.36;;;6.36;;
66669;SDS011;53568;52.164;4.472;2023-07-08T02:42:47;6.20;;;6.20;;
66669;SDS011;53568;52.164;4.472;2023-07-08T02:45:14;6.36;;;6.36;;
66669;SDS011;53568;52.164;4.472;2023-07-08T02:47:40;6.19;;;6.19;;
66669;SDS011;53568;52.164;4.472;2023-07-08T02:50:07;6.13;;;6.13;;
66669;SDS011;53568;52.164;4.472;2023-07-08T02:52:34;5.90;;;5.90;;
66669;SDS011;53568;52.164;4.472;2023-07-08T02:55:00;6.38;;;6.38;;
66669;SDS011;53568;52.164;4.472;2023-07-08T02:57:25;5.96;;;5.96;;
66669;SDS011;53568;52.164;4.472;2023-07-08T02:59:51;6.40;;;6.40;;
66669;SDS011;53568;52.164;4.472;2023-07-08T03:02:16;6.06;;;6.06;;
66669;SDS011;53568;52.164;4.472;2023-07-08T03:04:42;6.49;;;6.49;;
66669;SDS011;53568;52.164;4.472;2023-07-08T03:07:08;6.32;;;6.32;;
66669;SDS011;53568;52.164;4.472;2023-07-08T03:09:40;6.25;;;6.25;;
66669;SDS011;53568;52.164;4.472;2023-07-08T03:12:06;6.34;;;6.34;;
66669;SDS011;53568;52.164;4.472;2023-07-08T03:14:33;6.18;;;6.18;;
66669;SDS011;53568;52.164;4.472;2023-07-08T03:16:59;6.58;;;6.58;;
66669;SDS011;53568;52.164;4.472;2023-07-08T03:19:25;6.20;;;6.20;;
66669;SDS011;53568;52.164;4.472;2023-07-08T03:21:50;6.24;;;6.24;;
66669;SDS011;53568;52.164;4.472;2023-07-08T03:24:16;6.03;;;6.03;;
66669;SDS011;53568;52.164;4.472;2023-07-08T03:26:43;6.25;;;6.25;;
66669;SDS011;53568;52.164;4.472;2023-07-08T03:29:13;6.45;;;6.45;;
66669;SDS011;53568;52.164;4.472;2023-07-08T03:31:41;6.35;;;6.35;;
66669;SDS011;53568;52.164;4.472;2023-07-08T03:34:08;6.28;;;6.28;;
66669;SDS011;53568;52.164;4.472;2023-07-08T03:36:36;6.22;;;6.22;;
66669;SDS011;53568;52.164;4.472;2023-07-08T03:39:17;5.91;;;5.91;;
66669;SDS011;53568;52.164;4.472;2023-07-08T03:41:45;6.19;;;6.19;;
66669;SDS011;53568;52.164;4.472;2023-07-08T03:44:11;6.15;;;6.15;;
66669;SDS011;53568;52.164;4.472;2023-07-08T03:46:37;6.38;;;6.38;;
66669;SDS011;53568;52.164;4.472;2023-07-08T03:49:04;6.34;;;6.34;;
66669;SDS011;53568;52.164;4.472;2023-07-08T03:51:35;6.59;;;6.59;;
66669;SDS011;53568;52.164;4.472;2023-07-08T03:54:03;6.84;;;6.84;;
66669;SDS011;53568;52.164;4.472;2023-07-08T03:56:30;6.72;;;6.72;;
66669;SDS011;53568;52.164;4.472;2023-07-08T03:58:55;6.71;;;6.71;;
66669;SDS011;53568;52.164;4.472;2023-07-08T04:01:22;6.69;;;6.69;;
66669;SDS011;53568;52.164;4.472;2023-07-08T04:03:50;7.13;;;7.13;;
66669;SDS011;53568;52.164;4.472;2023-07-08T04:06:17;7.02;;;7.02;;
66669;SDS011;53568;52.164;4.472;2023-07-08T04:08:43;6.77;;;6.77;;
66669;SDS011;53568;52.164;4.472;2023-07-08T04:11:10;6.94;;;6.94;;
66669;SDS011;53568;52.164;4.472;2023-07-08T04:13:39;6.49;;;6.49;;
66669;SDS011;53568;52.164;4.472;2023-07-08T04:16:05;6.63;;;6.63;;
66669;SDS011;53568;52.164;4.472;2023-07-08T04:18:31;6.62;;;6.62;;
66669;SDS011;53568;52.164;4.472;2023-07-08T04:20:57;6.54;;;6.54;;
66669;SDS011;53568;52.164;4.472;2023-07-08T04:23:24;6.93;;;6.93;;
66669;SDS011;53568;52.164;4.472;2023-07-08T04:25:50;6.63;;;6.63;;
66669;SDS011;53568;52.164;4.472;2023-07-08T04:28:20;6.77;;;6.77;;
66669;SDS011;53568;52.164;4.472;2023-07-08T04:30:46;6.73;;;6.73;;
66669;SDS011;53568;52.164;4.472;2023-07-08T04:33:13;6.63;;;6.63;;
66669;SDS011;53568;52.164;4.472;2023-07-08T04:35:40;6.77;;;6.77;;
66669;SDS011;53568;52.164;4.472;2023-07-08T04:38:17;6.42;;;6.42;;
66669;SDS011;53568;52.164;4.472;2023-07-08T04:40:47;6.71;;;6.71;;
66669;SDS011;53568;52.164;4.472;2023-07-08T04:43:14;6.75;;;6.75;;
66669;SDS011;53568;52.164;4.472;2023-07-08T04:45:40;6.65;;;6.65;;
66669;SDS011;53568;52.164;4.472;2023-07-08T04:48:13;6.68;;;6.68;;
66669;SDS011;53568;52.164;4.472;2023-07-08T04:50:43;6.60;;;6.60;;
66669;SDS011;53568;52.164;4.472;2023-07-08T04:53:11;6.55;;;6.55;;
66669;SDS011;53568;52.164;4.472;2023-07-08T04:55:38;6.67;;;6.67;;
66669;SDS011;53568;52.164;4.472;2023-07-08T04:58:07;6.14;;;6.14;;
66669;SDS011;53568;52.164;4.472;2023-07-08T05:00:33;6.46;;;6.46;;
66669;SDS011;53568;52.164;4.472;2023-07-08T05:02:59;6.34;;;6.34;;
66669;SDS011;53568;52.164;4.472;2023-07-08T05:05:25;6.37;;;6.37;;
66669;SDS011;53568;52.164;4.472;2023-07-08T05:07:50;6.41;;;6.41;;
66669;SDS011;53568;52.164;4.472;2023-07-08T05:10:16;6.52;;;6.52;;
66669;SDS011;53568;52.164;4.472;2023-07-08T05:12:43;6.54;;;6.54;;
66669;SDS011;53568;52.164;4.472;2023-07-08T05:15:10;6.60;;;6.60;;
66669;SDS011;53568;52.164;4.472;2023-07-08T05:17:37;6.62;;;6.62;;
66669;SDS011;53568;52.164;4.472;2023-07-08T05:20:04;6.56;;;6.56;;
66669;SDS011;53568;52.164;4.472;2023-07-08T05:22:34;6.46;;;6.46;;
66669;SDS011;53568;52.164;4.472;2023-07-08T05:25:00;6.31;;;6.31;;
66669;SDS011;53568;52.164;4.472;2023-07-08T05:27:26;6.51;;;6.51;;
66669;SDS011;53568;52.164;4.472;2023-07-08T05:29:52;6.24;;;6.24;;
66669;SDS011;53568;52.164;4.472;2023-07-08T05:32:18;6.18;;;6.18;;
66669;SDS011;53568;52.164;4.472;2023-07-08T05:34:44;6.49;;;6.49;;
66669;SDS011;53568;52.164;4.472;2023-07-08T05:37:11;6.54;;;6.54;;
66669;SDS011;53568;52.164;4.472;2023-07-08T05:39:37;6.53;;;6.53;;
66669;SDS011;53568;52.164;4.472;2023-07-08T05:42:03;6.59;;;6.59;;
66669;SDS011;53568;52.164;4.472;2023-07-08T05:44:29;6.44;;;6.44;;
66669;SDS011;53568;52.164;4.472;2023-07-08T05:46:55;6.52;;;6.52;;
66669;SDS011;53568;52.164;4.472;2023-07-08T05:49:20;6.70;;;6.70;;
66669;SDS011;53568;52.164;4.472;2023-07-08T05:51:46;6.74;;;6.74;;
66669;SDS011;53568;52.164;4.472;2023-07-08T05:54:12;6.60;;;6.60;;
66669;SDS011;53568;52.164;4.472;2023-07-08T05:56:39;6.78;;;6.78;;
66669;SDS011;53568;52.164;4.472;2023-07-08T05:59:05;6.75;;;6.75;;
66669;SDS011;53568;52.164;4.472;2023-07-08T06:01:30;6.99;;;6.99;;
66669;SDS011;53568;52.164;4.472;2023-07-08T06:03:57;6.49;;;6.49;;
66669;SDS011;53568;52.164;4.472;2023-07-08T06:06:26;6.48;;;6.48;;
66669;SDS011;53568;52.164;4.472;2023-07-08T06:08:53;7.01;;;7.01;;
66669;SDS011;53568;52.164;4.472;2023-07-08T06:11:19;6.82;;;6.82;;
66669;SDS011;53568;52.164;4.472;2023-07-08T06:13:45;6.59;;;6.59;;
66669;SDS011;53568;52.164;4.472;2023-07-08T06:16:10;6.79;;;6.79;;
66669;SDS011;53568;52.164;4.472;2023-07-08T06:18:36;6.43;;;6.43;;
66669;SDS011;53568;52.164;4.472;2023-07-08T06:21:02;6.32;;;6.32;;
66669;SDS011;53568;52.164;4.472;2023-07-08T06:23:27;6.85;;;6.85;;
66669;SDS011;53568;52.164;4.472;2023-07-08T06:25:53;6.19;;;6.19;;
66669;SDS011;53568;52.164;4.472;2023-07-08T06:28:20;6.37;;;6.37;;
66669;SDS011;53568;52.164;4.472;2023-07-08T06:30:47;6.77;;;6.77;;
66669;SDS011;53568;52.164;4.472;2023-07-08T06:33:13;6.76;;;6.76;;
66669;SDS011;53568;52.164;4.472;2023-07-08T06:35:40;6.27;;;6.27;;
66669;SDS011;53568;52.164;4.472;2023-07-08T06:38:06;6.36;;;6.36;;
66669;SDS011;53568;52.164;4.472;2023-07-08T06:40:32;6.62;;;6.62;;
66669;SDS011;53568;52.164;4.472;2023-07-08T06:42:58;6.37;;;6.37;;
66669;SDS011;53568;52.164;4.472;2023-07-08T06:45:24;6.38;;;6.38;;
66669;SDS011;53568;52.164;4.472;2023-07-08T06:47:50;6.29;;;6.29;;
66669;SDS011;53568;52.164;4.472;2023-07-08T06:50:15;6.38;;;6.38;;
66669;SDS011;53568;52.164;4.472;2023-07-08T06:52:41;6.36;;;6.36;;
66669;SDS011;53568;52.164;4.472;2023-07-08T06:55:08;6.39;;;6.39;;
66669;SDS011;53568;52.164;4.472;2023-07-08T06:57:35;6.78;;;6.78;;
66669;SDS011;53568;52.164;4.472;2023-07-08T07:00:03;6.66;;;6.66;;
66669;SDS011;53568;52.164;4.472;2023-07-08T07:02:29;6.47;;;6.47;;
66669;SDS011;53568;52.164;4.472;2023-07-08T07:04:54;6.78;;;6.78;;
66669;SDS011;53568;52.164;4.472;2023-07-08T07:07:20;6.48;;;6.48;;
66669;SDS011;53568;52.164;4.472;2023-07-08T07:09:46;6.55;;;6.55;;
66669;SDS011;53568;52.164;4.472;2023-07-08T07:12:12;6.63;;;6.63;;
66669;SDS011;53568;52.164;4.472;2023-07-08T07:14:40;6.52;;;6.52;;
66669;SDS011;53568;52.164;4.472;2023-07-08T07:17:12;6.79;;;6.79;;
66669;SDS011;53568;52.164;4.472;2023-07-08T07:19:43;6.62;;;6.62;;
66669;SDS011;53568;52.164;4.472;2023-07-08T07:22:09;6.65;;;6.65;;
66669;SDS011;53568;52.164;4.472;2023-07-08T07:24:34;6.91;;;6.91;;
66669;SDS011;53568;52.164;4.472;2023-07-08T07:27:00;6.74;;;6.74;;
66669;SDS011;53568;52.164;4.472;2023-07-08T07:29:35;6.53;;;6.53;;
66669;SDS011;53568;52.164;4.472;2023-07-08T07:32:13;6.67;;;6.67;;
66669;SDS011;53568;52.164;4.472;2023-07-08T07:34:40;7.00;;;7.00;;
66669;SDS011;53568;52.164;4.472;2023-07-08T07:37:09;6.64;;;6.64;;
66669;SDS011;53568;52.164;4.472;2023-07-08T07:39:37;7.14;;;7.14;;
66669;SDS011;53568;52.164;4.472;2023-07-08T07:42:03;7.02;;;7.02;;
66669;SDS011;53568;52.164;4.472;2023-07-08T07:44:29;7.00;;;7.00;;
66669;SDS011;53568;52.164;4.472;2023-07-08T07:46:55;6.35;;;6.35;;
66669;SDS011;53568;52.164;4.472;2023-07-08T07:49:21;6.86;;;6.86;;
66669;SDS011;53568;52.164;4.472;2023-07-08T07:51:46;6.64;;;6.64;;
66669;SDS011;53568;52.164;4.472;2023-07-08T07:54:13;7.38;;;7.38;;
66669;SDS011;53568;52.164;4.472;2023-07-08T07:56:39;7.03;;;7.03;;
66669;SDS011;53568;52.164;4.472;2023-07-08T07:59:06;6.89;;;6.89;;
66669;SDS011;53568;52.164;4.472;2023-07-08T08:01:32;7.00;;;7.00;;
66669;SDS011;53568;52.164;4.472;2023-07-08T08:03:59;6.69;;;6.69;;
66669;SDS011;53568;52.164;4.472;2023-07-08T08:06:25;7.28;;;7.28;;
66669;SDS011;53568;52.164;4.472;2023-07-08T08:08:51;6.87;;;6.87;;
66669;SDS011;53568;52.164;4.472;2023-07-08T08:11:16;6.98;;;6.98;;
66669;SDS011;53568;52.164;4.472;2023-07-08T08:13:42;7.12;;;7.12;;
66669;SDS011;53568;52.164;4.472;2023-07-08T08:16:08;7.22;;;7.22;;
66669;SDS011;53568;52.164;4.472;2023-07-08T08:18:33;7.16;;;7.16;;
66669;SDS011;53568;52.164;4.472;2023-07-08T08:21:01;7.46;;;7.46;;
66669;SDS011;53568;52.164;4.472;2023-07-08T08:23:27;7.19;;;7.19;;
66669;SDS011;53568;52.164;4.472;2023-07-08T08:25:53;6.81;;;6.81;;
66669;SDS011;53568;52.164;4.472;2023-07-08T08:28:19;6.76;;;6.76;;
66669;SDS011;53568;52.164;4.472;2023-07-08T08:30:48;7.62;;;7.62;;
66669;SDS011;53568;52.164;4.472;2023-07-08T08:33:14;7.22;;;7.22;;
66669;SDS011;53568;52.164;4.472;2023-07-08T08:35:44;7.15;;;7.15;;
66669;SDS011;53568;52.164;4.472;2023-07-08T08:38:10;7.51;;;7.51;;
66669;SDS011;53568;52.164;4.472;2023-07-08T08:40:36;7.23;;;7.23;;
66669;SDS011;53568;52.164;4.472;2023-07-08T08:43:14;7.04;;;7.04;;
66669;SDS011;53568;52.164;4.472;2023-07-08T08:45:58;7.20;;;7.20;;
66669;SDS011;53568;52.164;4.472;2023-07-08T08:49:23;7.12;;;7.12;;
66669;SDS011;53568;52.164;4.472;2023-07-08T08:51:47;7.44;;;7.44;;
66669;SDS011;53568;52.164;4.472;2023-07-08T08:54:14;7.61;;;7.61;;
66669;SDS011;53568;52.164;4.472;2023-07-08T09:02:28;7.55;;;7.55;;
66669;SDS011;53568;52.164;4.472;2023-07-08T09:04:55;7.30;;;7.30;;
66669;SDS011;53568;52.164;4.472;2023-07-08T09:07:29;7.58;;;7.58;;
66669;SDS011;53568;52.164;4.472;2023-07-08T09:13:30;7.59;;;7.59;;
66669;SDS011;53568;52.164;4.472;2023-07-08T09:16:11;8.12;;;8.12;;
66669;SDS011;53568;52.164;4.472;2023-07-08T09:21:21;7.82;;;7.82;;
66669;SDS011;53568;52.164;4.472;2023-07-08T09:23:59;8.06;;;8.05;;
66669;SDS011;53568;52.164;4.472;2023-07-08T09:26:30;7.90;;;7.90;;
66669;SDS011;53568;52.164;4.472;2023-07-08T09:28:58;7.65;;;7.63;;
66669;SDS011;53568;52.164;4.472;2023-07-08T09:31:30;7.84;;;7.84;;
66669;SDS011;53568;52.164;4.472;2023-07-08T09:34:15;7.90;;;7.90;;
66669;SDS011;53568;52.164;4.472;2023-07-08T09:36:44;8.07;;;8.07;;
66669;SDS011;53568;52.164;4.472;2023-07-08T09:39:15;7.65;;;7.65;;
66669;SDS011;53568;52.164;4.472;2023-07-08T09:41:44;7.97;;;7.97;;
66669;SDS011;53568;52.164;4.472;2023-07-08T09:46:43;7.73;;;7.73;;
66669;SDS011;53568;52.164;4.472;2023-07-08T09:49:12;7.73;;;7.73;;
66669;SDS011;53568;52.164;4.472;2023-07-08T09:51:46;7.99;;;7.99;;
66669;SDS011;53568;52.164;4.472;2023-07-08T09:54:15;7.97;;;7.97;;
66669;SDS011;53568;52.164;4.472;2023-07-08T09:56:52;8.31;;;8.31;;
66669;SDS011;53568;52.164;4.472;2023-07-08T09:59:30;8.26;;;8.26;;
66669;SDS011;53568;52.164;4.472;2023-07-08T10:02:02;8.31;;;8.31;;
66669;SDS011;53568;52.164;4.472;2023-07-08T10:05:17;7.88;;;7.88;;
66669;SDS011;53568;52.164;4.472;2023-07-08T10:08:17;8.06;;;8.06;;
66669;SDS011;53568;52.164;4.472;2023-07-08T10:11:02;8.01;;;8.01;;
66669;SDS011;53568;52.164;4.472;2023-07-08T10:13:40;8.08;;;8.08;;
66669;SDS011;53568;52.164;4.472;2023-07-08T10:18:37;8.15;;;8.15;;
66669;SDS011;53568;52.164;4.472;2023-07-08T10:26:18;8.19;;;8.19;;
66669;SDS011;53568;52.164;4.472;2023-07-08T10:31:53;8.29;;;8.26;;
66669;SDS011;53568;52.164;4.472;2023-07-08T10:34:36;8.23;;;8.23;;
66669;SDS011;53568;52.164;4.472;2023-07-08T10:51:10;8.32;;;8.32;;
66669;SDS011;53568;52.164;4.472;2023-07-08T10:59:06;8.69;;;8.67;;
66669;SDS011;53568;52.164;4.472;2023-07-08T11:08:06;8.44;;;8.44;;
66669;SDS011;53568;52.164;4.472;2023-07-08T11:10:46;8.78;;;8.78;;
66669;SDS011;53568;52.164;4.472;2023-07-08T11:13:29;8.39;;;8.39;;
66669;SDS011;53568;52.164;4.472;2023-07-08T11:16:02;8.59;;;8.53;;
66669;SDS011;53568;52.164;4.472;2023-07-08T11:18:52;9.11;;;9.11;;
66669;SDS011;53568;52.164;4.472;2023-07-08T11:21:38;8.34;;;8.34;;
66669;SDS011;53568;52.164;4.472;2023-07-08T11:26:55;8.69;;;8.63;;
66669;SDS011;53568;52.164;4.472;2023-07-08T11:30:22;8.62;;;8.62;;
66669;SDS011;53568;52.164;4.472;2023-07-08T11:32:38;8.70;;;8.70;;
66669;SDS011;53568;52.164;4.472;2023-07-08T11:35:07;8.51;;;8.51;;
66669;SDS011;53568;52.164;4.472;2023-07-08T11:38:00;8.66;;;8.66;;
66669;SDS011;53568;52.164;4.472;2023-07-08T11:40:28;9.08;;;9.07;;
66669;SDS011;53568;52.164;4.472;2023-07-08T11:43:03;8.94;;;8.94;;
66669;SDS011;53568;52.164;4.472;2023-07-08T11:45:40;9.10;;;9.10;;
66669;SDS011;53568;52.164;4.472;2023-07-08T11:50:47;8.67;;;8.67;;
66669;SDS011;53568;52.164;4.472;2023-07-08T11:55:57;9.00;;;9.00;;
66669;SDS011;53568;52.164;4.472;2023-07-08T11:58:26;8.27;;;8.27;;
66669;SDS011;53568;52.164;4.472;2023-07-08T12:00:58;8.35;;;8.32;;
66669;SDS011;53568;52.164;4.472;2023-07-08T12:03:38;8.67;;;8.67;;
66669;SDS011;53568;52.164;4.472;2023-07-08T12:08:59;8.66;;;8.66;;
66669;SDS011;53568;52.164;4.472;2023-07-08T12:11:40;9.10;;;9.10;;
66669;SDS011;53568;52.164;4.472;2023-07-08T12:14:11;8.82;;;8.82;;
66669;SDS011;53568;52.164;4.472;2023-07-08T12:16:39;9.07;;;9.05;;
66669;SDS011;53568;52.164;4.472;2023-07-08T12:19:09;9.10;;;9.08;;
66669;SDS011;53568;52.164;4.472;2023-07-08T12:21:41;8.88;;;8.75;;
66669;SDS011;53568;52.164;4.472;2023-07-08T12:24:09;8.65;;;8.65;;
66669;SDS011;53568;52.164;4.472;2023-07-08T12:26:46;8.41;;;8.41;;
66669;SDS011;53568;52.164;4.472;2023-07-08T12:29:12;8.60;;;8.60;;
66669;SDS011;53568;52.164;4.472;2023-07-08T12:31:45;8.40;;;8.38;;
66669;SDS011;53568;52.164;4.472;2023-07-08T12:34:14;8.56;;;8.56;;
66669;SDS011;53568;52.164;4.472;2023-07-08T12:36:45;8.85;;;8.85;;
66669;SDS011;53568;52.164;4.472;2023-07-08T12:39:13;8.52;;;8.52;;
66669;SDS011;53568;52.164;4.472;2023-07-08T12:41:41;8.18;;;8.18;;
66669;SDS011;53568;52.164;4.472;2023-07-08T12:44:16;8.64;;;8.57;;
66669;SDS011;53568;52.164;4.472;2023-07-08T12:46:48;8.55;;;8.38;;
66669;SDS011;53568;52.164;4.472;2023-07-08T12:49:17;8.88;;;8.80;;
66669;SDS011;53568;52.164;4.472;2023-07-08T12:51:45;8.41;;;8.39;;
66669;SDS011;53568;52.164;4.472;2023-07-08T12:54:12;8.28;;;8.13;;
66669;SDS011;53568;52.164;4.472;2023-07-08T12:56:39;8.35;;;8.26;;
66669;SDS011;53568;52.164;4.472;2023-07-08T12:59:11;7.79;;;7.78;;
66669;SDS011;53568;52.164;4.472;2023-07-08T13:01:42;7.99;;;7.92;;
66669;SDS011;53568;52.164;4.472;2023-07-08T13:04:12;7.73;;;7.65;;
66669;SDS011;53568;52.164;4.472;2023-07-08T13:06:40;6.92;;;6.90;;
66669;SDS011;53568;52.164;4.472;2023-07-08T13:11:36;7.62;;;7.62;;
66669;SDS011;53568;52.164;4.472;2023-07-08T13:14:09;7.43;;;7.41;;
66669;SDS011;53568;52.164;4.472;2023-07-08T13:16:37;6.58;;;6.58;;
66669;SDS011;53568;52.164;4.472;2023-07-08T13:19:04;6.98;;;6.98;;
66669;SDS011;53568;52.164;4.472;2023-07-08T13:21:30;6.59;;;6.59;;
66669;SDS011;53568;52.164;4.472;2023-07-08T13:23:58;6.82;;;6.81;;
66669;SDS011;53568;52.164;4.472;2023-07-08T13:26:29;6.91;;;6.84;;
66669;SDS011;53568;52.164;4.472;2023-07-08T13:29:00;6.92;;;6.91;;
66669;SDS011;53568;52.164;4.472;2023-07-08T13:31:33;7.00;;;7.00;;
66669;SDS011;53568;52.164;4.472;2023-07-08T13:34:07;6.82;;;6.76;;
66669;SDS011;53568;52.164;4.472;2023-07-08T13:36:38;7.00;;;6.98;;
66669;SDS011;53568;52.164;4.472;2023-07-08T13:39:07;7.07;;;7.06;;
66669;SDS011;53568;52.164;4.472;2023-07-08T13:41:37;6.92;;;6.92;;
66669;SDS011;53568;52.164;4.472;2023-07-08T13:44:09;6.79;;;6.79;;
66669;SDS011;53568;52.164;4.472;2023-07-08T13:46:37;6.82;;;6.82;;
66669;SDS011;53568;52.164;4.472;2023-07-08T13:49:15;8.18;;;8.18;;
66669;SDS011;53568;52.164;4.472;2023-07-08T13:52:15;7.06;;;7.02;;
66669;SDS011;53568;52.164;4.472;2023-07-08T13:54:47;6.62;;;6.60;;
66669;SDS011;53568;52.164;4.472;2023-07-08T13:57:21;7.23;;;7.22;;
66669;SDS011;53568;52.164;4.472;2023-07-08T13:59:53;6.93;;;6.79;;
66669;SDS011;53568;52.164;4.472;2023-07-08T14:02:20;6.98;;;6.93;;
66669;SDS011;53568;52.164;4.472;2023-07-08T14:04:49;7.07;;;7.06;;
66669;SDS011;53568;52.164;4.472;2023-07-08T14:07:23;6.92;;;6.91;;
66669;SDS011;53568;52.164;4.472;2023-07-08T14:09:54;6.74;;;6.74;;
66669;SDS011;53568;52.164;4.472;2023-07-08T14:12:21;6.92;;;6.92;;
66669;SDS011;53568;52.164;4.472;2023-07-08T14:14:47;7.10;;;7.10;;
66669;SDS011;53568;52.164;4.472;2023-07-08T14:17:17;6.91;;;6.91;;
66669;SDS011;53568;52.164;4.472;2023-07-08T14:19:49;6.98;;;6.98;;
66669;SDS011;53568;52.164;4.472;2023-07-08T14:24:46;7.27;;;7.26;;
66669;SDS011;53568;52.164;4.472;2023-07-08T14:27:11;6.76;;;6.72;;
66669;SDS011;53568;52.164;4.472;2023-07-08T14:29:42;6.49;;;6.48;;
66669;SDS011;53568;52.164;4.472;2023-07-08T14:32:14;6.43;;;6.43;;
66669;SDS011;53568;52.164;4.472;2023-07-08T14:34:56;6.49;;;6.45;;
66669;SDS011;53568;52.164;4.472;2023-07-08T14:37:28;6.49;;;6.48;;
66669;SDS011;53568;52.164;4.472;2023-07-08T14:39:57;6.40;;;6.40;;
66669;SDS011;53568;52.164;4.472;2023-07-08T14:42:24;6.61;;;6.61;;
66669;SDS011;53568;52.164;4.472;2023-07-08T14:44:53;6.34;;;6.33;;
66669;SDS011;53568;52.164;4.472;2023-07-08T14:47:26;7.01;;;7.01;;
66669;SDS011;53568;52.164;4.472;2023-07-08T14:49:51;6.96;;;6.96;;
66669;SDS011;53568;52.164;4.472;2023-07-08T14:52:19;6.94;;;6.94;;
66669;SDS011;53568;52.164;4.472;2023-07-08T14:54:44;6.59;;;6.59;;
66669;SDS011;53568;52.164;4.472;2023-07-08T14:57:15;6.70;;;6.62;;
66669;SDS011;53568;52.164;4.472;2023-07-08T14:59:44;7.30;;;7.29;;
66669;SDS011;53568;52.164;4.472;2023-07-08T15:02:31;6.99;;;6.99;;
66669;SDS011;53568;52.164;4.472;2023-07-08T15:05:05;6.94;;;6.94;;
66669;SDS011;53568;52.164;4.472;2023-07-08T15:07:52;7.36;;;7.36;;
66669;SDS011;53568;52.164;4.472;2023-07-08T15:10:21;6.89;;;6.89;;
66669;SDS011;53568;52.164;4.472;2023-07-08T15:12:51;6.93;;;6.93;;
66669;SDS011;53568;52.164;4.472;2023-07-08T15:15:23;7.40;;;7.40;;
66669;SDS011;53568;52.164;4.472;2023-07-08T15:18:17;7.38;;;7.36;;
66669;SDS011;53568;52.164;4.472;2023-07-08T15:20:46;7.40;;;7.39;;
66669;SDS011;53568;52.164;4.472;2023-07-08T15:23:12;7.54;;;7.46;;
66669;SDS011;53568;52.164;4.472;2023-07-08T15:25:41;7.72;;;7.72;;
66669;SDS011;53568;52.164;4.472;2023-07-08T15:28:39;7.83;;;7.75;;
66669;SDS011;53568;52.164;4.472;2023-07-08T15:31:16;7.63;;;7.63;;
66669;SDS011;53568;52.164;4.472;2023-07-08T15:33:46;8.04;;;8.04;;
66669;SDS011;53568;52.164;4.472;2023-07-08T15:36:29;8.01;;;7.87;;
66669;SDS011;53568;52.164;4.472;2023-07-08T15:39:06;8.06;;;7.96;;
66669;SDS011;53568;52.164;4.472;2023-07-08T15:41:39;8.54;;;8.54;;
66669;SDS011;53568;52.164;4.472;2023-07-08T15:44:10;8.49;;;8.49;;
66669;SDS011;53568;52.164;4.472;2023-07-08T15:46:39;8.79;;;8.79;;
66669;SDS011;53568;52.164;4.472;2023-07-08T15:49:31;9.24;;;9.24;;
66669;SDS011;53568;52.164;4.472;2023-07-08T15:51:59;9.30;;;9.30;;
66669;SDS011;53568;52.164;4.472;2023-07-08T15:54:25;9.40;;;9.40;;
66669;SDS011;53568;52.164;4.472;2023-07-08T15:56:53;10.03;;;10.03;;
66669;SDS011;53568;52.164;4.472;2023-07-08T15:59:24;10.23;;;10.22;;
66669;SDS011;53568;52.164;4.472;2023-07-08T16:01:53;10.10;;;10.10;;
66669;SDS011;53568;52.164;4.472;2023-07-08T16:04:25;9.98;;;9.98;;
66669;SDS011;53568;52.164;4.472;2023-07-08T16:06:55;10.04;;;10.04;;
66669;SDS011;53568;52.164;4.472;2023-07-08T16:09:23;10.20;;;10.20;;
66669;SDS011;53568;52.164;4.472;2023-07-08T16:11:49;10.18;;;10.18;;
66669;SDS011;53568;52.164;4.472;2023-07-08T16:14:22;10.28;;;10.28;;
66669;SDS011;53568;52.164;4.472;2023-07-08T16:16:48;10.71;;;10.71;;
66669;SDS011;53568;52.164;4.472;2023-07-08T16:19:17;10.34;;;10.34;;
66669;SDS011;53568;52.164;4.472;2023-07-08T16:21:46;10.83;;;10.83;;